sensor_id;sensor_type;location;lat;lon;timestamp;P1;durP1;ratioP1;P2;durP2;ratioP2
17967;SDS011;9109;48.050;11.696;2022-11-15T04:48:37;5.83;;;2.90;;
17967;SDS011;9109;48.050;11.696;2022-11-15T04:51:39;4.83;;;2.87;;
17967;SDS011;9109;48.050;11.696;2022-11-15T04:54:41;5.53;;;2.50;;
17967;SDS011;9109;48.050;11.696;2022-11-15T04:57:43;3.53;;;2.40;;
17967;SDS011;9109;48.050;11.696;2022-11-15T05:00:45;5.50;;;2.70;;
17967;SDS011;9109;48.050;11.696;2022-11-15T05:03:48;3.50;;;2.23;;
17967;SDS011;9109;48.050;11.696;2022-11-15T05:07:08;4.80;;;2.53;;
17967;SDS011;9109;48.050;11.696;2022-11-15T05:10:13;3.97;;;2.13;;
17967;SDS011;9109;48.050;11.696;2022-11-15T05:13:14;2.97;;;2.07;;
17967;SDS011;9109;48.050;11.696;2022-11-15T05:16:16;4.03;;;2.30;;
17967;SDS011;9109;48.050;11.696;2022-11-15T05:19:20;4.87;;;2.43;;
17967;SDS011;9109;48.050;11.696;2022-11-15T05:22:22;2.30;;;1.90;;
17967;SDS011;9109;48.050;11.696;2022-11-15T05:25:24;3.80;;;1.97;;
17967;SDS011;9109;48.050;11.696;2022-11-15T05:28:26;2.53;;;1.83;;
17967;SDS011;9109;48.050;11.696;2022-11-15T05:31:37;5.43;;;1.93;;
17967;SDS011;9109;48.050;11.696;2022-11-15T05:34:56;4.93;;;2.30;;
17967;SDS011;9109;48.050;11.696;2022-11-15T05:38:13;4.43;;;2.00;;
17967;SDS011;9109;48.050;11.696;2022-11-15T05:41:15;3.60;;;2.40;;
17967;SDS011;9109;48.050;11.696;2022-11-15T05:44:20;3.77;;;2.60;;
17967;SDS011;9109;48.050;11.696;2022-11-15T05:47:24;4.40;;;2.30;;
17967;SDS011;9109;48.050;11.696;2022-11-15T05:50:30;3.97;;;2.23;;
17967;SDS011;9109;48.050;11.696;2022-11-15T05:53:32;6.33;;;2.63;;
17967;SDS011;9109;48.050;11.696;2022-11-15T05:56:37;4.73;;;2.83;;
17967;SDS011;9109;48.050;11.696;2022-11-15T05:59:39;9.73;;;2.60;;
17967;SDS011;9109;48.050;11.696;2022-11-15T06:02:43;10.07;;;3.37;;
17967;SDS011;9109;48.050;11.696;2022-11-15T06:05:46;5.27;;;2.90;;
17967;SDS011;9109;48.050;11.696;2022-11-15T06:08:48;8.33;;;3.50;;
17967;SDS011;9109;48.050;11.696;2022-11-15T06:11:50;7.97;;;3.30;;
17967;SDS011;9109;48.050;11.696;2022-11-15T06:14:52;7.57;;;3.63;;
17967;SDS011;9109;48.050;11.696;2022-11-15T06:17:57;9.53;;;3.10;;
17967;SDS011;9109;48.050;11.696;2022-11-15T06:21:01;6.13;;;3.00;;
17967;SDS011;9109;48.050;11.696;2022-11-15T06:24:03;5.87;;;2.87;;
17967;SDS011;9109;48.050;11.696;2022-11-15T06:27:07;6.63;;;3.17;;
17967;SDS011;9109;48.050;11.696;2022-11-15T06:30:09;13.67;;;3.13;;
17967;SDS011;9109;48.050;11.696;2022-11-15T06:33:11;4.40;;;2.43;;
17967;SDS011;9109;48.050;11.696;2022-11-15T06:36:15;4.03;;;2.77;;
17967;SDS011;9109;48.050;11.696;2022-11-15T06:39:17;6.67;;;2.90;;
17967;SDS011;9109;48.050;11.696;2022-11-15T06:42:19;9.50;;;2.87;;
17967;SDS011;9109;48.050;11.696;2022-11-15T06:45:21;4.87;;;2.33;;
17967;SDS011;9109;48.050;11.696;2022-11-15T06:48:23;4.57;;;2.70;;
17967;SDS011;9109;48.050;11.696;2022-11-15T06:51:26;6.13;;;2.83;;
17967;SDS011;9109;48.050;11.696;2022-11-15T06:54:28;5.80;;;2.67;;
17967;SDS011;9109;48.050;11.696;2022-11-15T06:57:30;3.43;;;2.57;;
17967;SDS011;9109;48.050;11.696;2022-11-15T07:00:32;7.77;;;3.27;;
17967;SDS011;9109;48.050;11.696;2022-11-15T07:03:34;8.77;;;2.50;;
17967;SDS011;9109;48.050;11.696;2022-11-15T07:06:38;7.43;;;2.90;;
17967;SDS011;9109;48.050;11.696;2022-11-15T07:09:40;5.37;;;2.90;;
17967;SDS011;9109;48.050;11.696;2022-11-15T07:12:42;5.93;;;2.70;;
17967;SDS011;9109;48.050;11.696;2022-11-15T07:15:47;5.90;;;3.03;;
17967;SDS011;9109;48.050;11.696;2022-11-15T07:18:49;7.27;;;3.60;;
17967;SDS011;9109;48.050;11.696;2022-11-15T07:21:52;5.77;;;3.13;;
17967;SDS011;9109;48.050;11.696;2022-11-15T07:24:54;6.37;;;3.47;;
17967;SDS011;9109;48.050;11.696;2022-11-15T07:27:56;7.40;;;3.40;;
17967;SDS011;9109;48.050;11.696;2022-11-15T07:31:01;5.53;;;2.80;;
17967;SDS011;9109;48.050;11.696;2022-11-15T07:34:03;8.80;;;2.90;;
17967;SDS011;9109;48.050;11.696;2022-11-15T07:37:07;4.47;;;2.50;;
17967;SDS011;9109;48.050;11.696;2022-11-15T07:40:09;5.23;;;3.17;;
17967;SDS011;9109;48.050;11.696;2022-11-15T07:43:11;6.27;;;3.43;;
17967;SDS011;9109;48.050;11.696;2022-11-15T07:46:13;8.27;;;3.83;;
17967;SDS011;9109;48.050;11.696;2022-11-15T07:49:15;6.87;;;3.47;;
17967;SDS011;9109;48.050;11.696;2022-11-15T07:52:21;5.47;;;3.23;;
17967;SDS011;9109;48.050;11.696;2022-11-15T07:55:23;5.40;;;3.10;;
17967;SDS011;9109;48.050;11.696;2022-11-15T07:58:27;7.63;;;3.20;;
17967;SDS011;9109;48.050;11.696;2022-11-15T08:01:29;5.20;;;3.10;;
17967;SDS011;9109;48.050;11.696;2022-11-15T08:04:30;5.10;;;3.03;;
17967;SDS011;9109;48.050;11.696;2022-11-15T08:07:34;6.27;;;3.30;;
17967;SDS011;9109;48.050;11.696;2022-11-15T08:10:36;5.70;;;3.37;;
17967;SDS011;9109;48.050;11.696;2022-11-15T08:13:38;6.33;;;3.40;;
17967;SDS011;9109;48.050;11.696;2022-11-15T08:16:40;10.00;;;3.53;;
17967;SDS011;9109;48.050;11.696;2022-11-15T08:19:42;5.20;;;2.80;;
17967;SDS011;9109;48.050;11.696;2022-11-15T08:22:45;4.83;;;2.90;;
17967;SDS011;9109;48.050;11.696;2022-11-15T08:25:47;6.67;;;3.50;;
17967;SDS011;9109;48.050;11.696;2022-11-15T08:28:49;9.67;;;3.37;;
17967;SDS011;9109;48.050;11.696;2022-11-15T08:31:51;8.93;;;3.13;;
17967;SDS011;9109;48.050;11.696;2022-11-15T08:34:56;9.70;;;3.23;;
17967;SDS011;9109;48.050;11.696;2022-11-15T08:37:59;6.00;;;3.13;;
17967;SDS011;9109;48.050;11.696;2022-11-15T08:41:02;6.07;;;3.40;;
17967;SDS011;9109;48.050;11.696;2022-11-15T08:44:06;6.37;;;3.17;;
17967;SDS011;9109;48.050;11.696;2022-11-15T08:47:08;8.10;;;3.70;;
17967;SDS011;9109;48.050;11.696;2022-11-15T08:50:12;6.93;;;3.83;;
17967;SDS011;9109;48.050;11.696;2022-11-15T08:53:15;8.83;;;3.40;;
17967;SDS011;9109;48.050;11.696;2022-11-15T08:56:17;4.17;;;2.70;;
17967;SDS011;9109;48.050;11.696;2022-11-15T08:59:19;4.00;;;2.67;;
17967;SDS011;9109;48.050;11.696;2022-11-15T09:02:21;8.83;;;3.57;;
17967;SDS011;9109;48.050;11.696;2022-11-15T09:05:23;5.53;;;3.20;;
17967;SDS011;9109;48.050;11.696;2022-11-15T09:08:29;6.33;;;3.20;;
17967;SDS011;9109;48.050;11.696;2022-11-15T09:11:32;5.03;;;2.87;;
17967;SDS011;9109;48.050;11.696;2022-11-15T09:14:34;5.80;;;2.80;;
17967;SDS011;9109;48.050;11.696;2022-11-15T09:17:36;5.97;;;2.93;;
17967;SDS011;9109;48.050;11.696;2022-11-15T09:20:38;6.10;;;3.00;;
17967;SDS011;9109;48.050;11.696;2022-11-15T09:23:42;4.03;;;2.70;;
17967;SDS011;9109;48.050;11.696;2022-11-15T09:26:43;5.10;;;3.13;;
17967;SDS011;9109;48.050;11.696;2022-11-15T09:29:45;5.00;;;2.60;;
17967;SDS011;9109;48.050;11.696;2022-11-15T09:32:47;4.07;;;2.60;;
17967;SDS011;9109;48.050;11.696;2022-11-15T09:35:49;5.63;;;2.90;;
17967;SDS011;9109;48.050;11.696;2022-11-15T09:38:52;5.17;;;2.83;;
17967;SDS011;9109;48.050;11.696;2022-11-15T09:41:59;5.60;;;2.93;;
17967;SDS011;9109;48.050;11.696;2022-11-15T09:45:15;7.17;;;2.70;;
17967;SDS011;9109;48.050;11.696;2022-11-15T09:48:25;5.47;;;2.67;;
17967;SDS011;9109;48.050;11.696;2022-11-15T09:51:48;7.10;;;3.07;;
17967;SDS011;9109;48.050;11.696;2022-11-15T09:54:53;5.20;;;2.97;;
17967;SDS011;9109;48.050;11.696;2022-11-15T09:57:55;7.97;;;2.90;;
17967;SDS011;9109;48.050;11.696;2022-11-15T10:01:05;5.20;;;2.60;;
17967;SDS011;9109;48.050;11.696;2022-11-15T10:04:13;4.77;;;2.80;;
17967;SDS011;9109;48.050;11.696;2022-11-15T10:07:16;4.13;;;2.30;;
17967;SDS011;9109;48.050;11.696;2022-11-15T10:10:25;3.27;;;2.23;;
17967;SDS011;9109;48.050;11.696;2022-11-15T10:13:33;5.97;;;2.87;;
17967;SDS011;9109;48.050;11.696;2022-11-15T10:16:48;2.90;;;2.23;;
17967;SDS011;9109;48.050;11.696;2022-11-15T10:20:10;3.97;;;2.43;;
17967;SDS011;9109;48.050;11.696;2022-11-15T10:23:19;5.50;;;2.87;;
17967;SDS011;9109;48.050;11.696;2022-11-15T10:26:24;9.23;;;2.70;;
17967;SDS011;9109;48.050;11.696;2022-11-15T10:29:26;3.93;;;2.73;;
17967;SDS011;9109;48.050;11.696;2022-11-15T10:32:27;5.37;;;2.87;;
17967;SDS011;9109;48.050;11.696;2022-11-15T10:35:30;4.03;;;2.43;;
17967;SDS011;9109;48.050;11.696;2022-11-15T10:38:32;4.10;;;2.80;;
17967;SDS011;9109;48.050;11.696;2022-11-15T10:41:37;6.13;;;2.57;;
17967;SDS011;9109;48.050;11.696;2022-11-15T10:44:41;3.50;;;2.53;;
17967;SDS011;9109;48.050;11.696;2022-11-15T10:47:44;5.70;;;2.47;;
17967;SDS011;9109;48.050;11.696;2022-11-15T10:50:46;7.13;;;2.30;;
17967;SDS011;9109;48.050;11.696;2022-11-15T10:53:49;8.93;;;2.57;;
17967;SDS011;9109;48.050;11.696;2022-11-15T10:56:54;2.90;;;2.10;;
17967;SDS011;9109;48.050;11.696;2022-11-15T10:59:59;2.93;;;2.17;;
17967;SDS011;9109;48.050;11.696;2022-11-15T11:03:03;3.23;;;2.17;;
17967;SDS011;9109;48.050;11.696;2022-11-15T11:06:08;4.10;;;2.20;;
17967;SDS011;9109;48.050;11.696;2022-11-15T11:09:22;4.53;;;2.23;;
17967;SDS011;9109;48.050;11.696;2022-11-15T11:12:32;3.87;;;2.53;;
17967;SDS011;9109;48.050;11.696;2022-11-15T11:15:34;6.50;;;3.20;;
17967;SDS011;9109;48.050;11.696;2022-11-15T11:18:37;6.93;;;2.50;;
17967;SDS011;9109;48.050;11.696;2022-11-15T11:21:46;5.03;;;2.47;;
17967;SDS011;9109;48.050;11.696;2022-11-15T11:24:59;4.07;;;2.27;;
17967;SDS011;9109;48.050;11.696;2022-11-15T11:28:17;3.37;;;2.03;;
17967;SDS011;9109;48.050;11.696;2022-11-15T11:31:31;3.43;;;2.00;;
17967;SDS011;9109;48.050;11.696;2022-11-15T11:34:44;3.90;;;2.20;;
17967;SDS011;9109;48.050;11.696;2022-11-15T11:37:58;3.70;;;2.30;;
17967;SDS011;9109;48.050;11.696;2022-11-15T11:41:13;4.53;;;2.37;;
17967;SDS011;9109;48.050;11.696;2022-11-15T11:44:25;7.37;;;2.40;;
17967;SDS011;9109;48.050;11.696;2022-11-15T11:47:44;4.93;;;2.40;;
17967;SDS011;9109;48.050;11.696;2022-11-15T11:50:49;4.83;;;2.40;;
17967;SDS011;9109;48.050;11.696;2022-11-15T11:53:52;4.37;;;2.27;;
17967;SDS011;9109;48.050;11.696;2022-11-15T11:56:59;3.47;;;2.13;;
17967;SDS011;9109;48.050;11.696;2022-11-15T12:00:12;5.33;;;2.50;;
17967;SDS011;9109;48.050;11.696;2022-11-15T12:03:20;4.20;;;2.10;;
17967;SDS011;9109;48.050;11.696;2022-11-15T12:06:31;4.43;;;2.47;;
17967;SDS011;9109;48.050;11.696;2022-11-15T12:09:37;5.97;;;2.27;;
17967;SDS011;9109;48.050;11.696;2022-11-15T12:12:47;4.97;;;2.20;;
17967;SDS011;9109;48.050;11.696;2022-11-15T12:15:56;3.93;;;2.50;;
17967;SDS011;9109;48.050;11.696;2022-11-15T12:19:03;5.03;;;2.63;;
17967;SDS011;9109;48.050;11.696;2022-11-15T12:22:06;3.43;;;2.13;;
17967;SDS011;9109;48.050;11.696;2022-11-15T12:25:16;4.07;;;2.33;;
17967;SDS011;9109;48.050;11.696;2022-11-15T12:28:24;4.50;;;2.23;;
17967;SDS011;9109;48.050;11.696;2022-11-15T12:31:38;4.97;;;2.37;;
17967;SDS011;9109;48.050;11.696;2022-11-15T12:34:44;11.47;;;3.03;;
17967;SDS011;9109;48.050;11.696;2022-11-15T12:37:49;8.03;;;3.70;;
17967;SDS011;9109;48.050;11.696;2022-11-15T12:47:50;4.03;;;2.20;;
17967;SDS011;9109;48.050;11.696;2022-11-15T12:50:56;4.80;;;1.73;;
17967;SDS011;9109;48.050;11.696;2022-11-15T12:53:58;3.30;;;2.03;;
17967;SDS011;9109;48.050;11.696;2022-11-15T13:00:37;8.80;;;2.10;;
17967;SDS011;9109;48.050;11.696;2022-11-15T13:07:54;5.27;;;2.00;;
17967;SDS011;9109;48.050;11.696;2022-11-15T13:10:57;3.50;;;1.67;;
17967;SDS011;9109;48.050;11.696;2022-11-15T13:13:59;2.70;;;1.80;;
17967;SDS011;9109;48.050;11.696;2022-11-15T13:17:01;6.87;;;2.00;;
17967;SDS011;9109;48.050;11.696;2022-11-15T13:20:21;4.30;;;2.40;;
17967;SDS011;9109;48.050;11.696;2022-11-15T13:23:28;4.10;;;2.00;;
17967;SDS011;9109;48.050;11.696;2022-11-15T13:26:30;3.28;;;1.95;;
17967;SDS011;9109;48.050;11.696;2022-11-15T13:29:32;4.43;;;1.85;;
17967;SDS011;9109;48.050;11.696;2022-11-15T13:32:37;6.07;;;2.10;;
17967;SDS011;9109;48.050;11.696;2022-11-15T13:35:44;4.17;;;2.30;;
17967;SDS011;9109;48.050;11.696;2022-11-15T13:38:54;3.42;;;1.90;;
17967;SDS011;9109;48.050;11.696;2022-11-15T13:41:58;5.93;;;2.03;;
17967;SDS011;9109;48.050;11.696;2022-11-15T13:45:02;3.78;;;2.25;;
17967;SDS011;9109;48.050;11.696;2022-11-15T13:48:05;3.30;;;2.03;;
17967;SDS011;9109;48.050;11.696;2022-11-15T13:51:13;6.97;;;2.03;;
17967;SDS011;9109;48.050;11.696;2022-11-15T13:54:23;2.67;;;2.13;;
17967;SDS011;9109;48.050;11.696;2022-11-15T13:57:29;5.37;;;2.73;;
17967;SDS011;9109;48.050;11.696;2022-11-15T14:00:37;6.40;;;2.47;;
17967;SDS011;9109;48.050;11.696;2022-11-15T14:03:45;6.17;;;2.80;;
17967;SDS011;9109;48.050;11.696;2022-11-15T14:06:52;7.90;;;4.22;;
17967;SDS011;9109;48.050;11.696;2022-11-15T14:09:56;6.53;;;3.60;;
17967;SDS011;9109;48.050;11.696;2022-11-15T14:12:58;10.07;;;3.20;;
17967;SDS011;9109;48.050;11.696;2022-11-15T14:16:13;5.67;;;2.90;;
17967;SDS011;9109;48.050;11.696;2022-11-15T14:19:33;3.75;;;2.50;;
17967;SDS011;9109;48.050;11.696;2022-11-15T14:22:38;6.40;;;2.60;;
17967;SDS011;9109;48.050;11.696;2022-11-15T14:25:53;5.00;;;3.00;;
17967;SDS011;9109;48.050;11.696;2022-11-15T14:28:57;6.07;;;2.97;;
17967;SDS011;9109;48.050;11.696;2022-11-15T14:32:20;5.53;;;2.83;;
17967;SDS011;9109;48.050;11.696;2022-11-15T14:35:23;6.60;;;2.80;;
17967;SDS011;9109;48.050;11.696;2022-11-15T14:38:27;4.57;;;2.90;;
17967;SDS011;9109;48.050;11.696;2022-11-15T14:41:28;4.63;;;2.60;;
17967;SDS011;9109;48.050;11.696;2022-11-15T14:44:32;6.15;;;2.75;;
17967;SDS011;9109;48.050;11.696;2022-11-15T14:47:42;5.90;;;2.97;;
17967;SDS011;9109;48.050;11.696;2022-11-15T14:50:45;7.57;;;2.93;;
17967;SDS011;9109;48.050;11.696;2022-11-15T14:53:48;9.70;;;3.50;;
17967;SDS011;9109;48.050;11.696;2022-11-15T14:56:51;9.33;;;3.57;;
17967;SDS011;9109;48.050;11.696;2022-11-15T14:59:53;4.87;;;2.90;;
17967;SDS011;9109;48.050;11.696;2022-11-15T15:02:55;6.93;;;3.00;;
17967;SDS011;9109;48.050;11.696;2022-11-15T15:05:57;15.97;;;2.93;;
17967;SDS011;9109;48.050;11.696;2022-11-15T15:09:00;18.77;;;3.50;;
17967;SDS011;9109;48.050;11.696;2022-11-15T15:12:04;14.50;;;3.13;;
17967;SDS011;9109;48.050;11.696;2022-11-15T15:15:11;7.40;;;3.10;;
17967;SDS011;9109;48.050;11.696;2022-11-15T15:18:14;12.13;;;3.33;;
17967;SDS011;9109;48.050;11.696;2022-11-15T15:21:18;5.27;;;2.73;;
17967;SDS011;9109;48.050;11.696;2022-11-15T15:24:26;3.97;;;2.87;;
17967;SDS011;9109;48.050;11.696;2022-11-15T15:27:28;5.63;;;3.13;;
17967;SDS011;9109;48.050;11.696;2022-11-15T15:30:30;9.20;;;3.40;;
17967;SDS011;9109;48.050;11.696;2022-11-15T15:33:32;5.13;;;2.97;;
17967;SDS011;9109;48.050;11.696;2022-11-15T15:36:43;13.57;;;4.30;;
17967;SDS011;9109;48.050;11.696;2022-11-15T15:39:46;7.73;;;3.43;;
17967;SDS011;9109;48.050;11.696;2022-11-15T15:42:52;12.50;;;3.60;;
17967;SDS011;9109;48.050;11.696;2022-11-15T15:45:56;11.57;;;3.50;;
17967;SDS011;9109;48.050;11.696;2022-11-15T15:48:58;11.87;;;4.47;;
17967;SDS011;9109;48.050;11.696;2022-11-15T15:52:00;17.10;;;3.80;;
17967;SDS011;9109;48.050;11.696;2022-11-15T15:55:04;9.70;;;3.70;;
17967;SDS011;9109;48.050;11.696;2022-11-15T15:58:06;16.67;;;4.27;;
17967;SDS011;9109;48.050;11.696;2022-11-15T16:01:11;11.93;;;4.53;;
17967;SDS011;9109;48.050;11.696;2022-11-15T16:04:13;16.53;;;3.90;;
17967;SDS011;9109;48.050;11.696;2022-11-15T16:07:17;9.80;;;4.07;;
17967;SDS011;9109;48.050;11.696;2022-11-15T16:10:26;22.67;;;3.90;;
17967;SDS011;9109;48.050;11.696;2022-11-15T16:13:29;18.00;;;5.03;;
17967;SDS011;9109;48.050;11.696;2022-11-15T16:16:34;20.17;;;5.20;;
17967;SDS011;9109;48.050;11.696;2022-11-15T16:19:41;19.63;;;4.57;;
17967;SDS011;9109;48.050;11.696;2022-11-15T16:22:46;19.33;;;4.67;;
17967;SDS011;9109;48.050;11.696;2022-11-15T16:25:50;21.63;;;4.43;;
17967;SDS011;9109;48.050;11.696;2022-11-15T16:28:55;14.37;;;4.17;;
17967;SDS011;9109;48.050;11.696;2022-11-15T16:31:59;17.23;;;3.73;;
17967;SDS011;9109;48.050;11.696;2022-11-15T16:35:01;15.57;;;4.10;;
17967;SDS011;9109;48.050;11.696;2022-11-15T16:38:05;9.67;;;3.90;;
17967;SDS011;9109;48.050;11.696;2022-11-15T16:41:24;17.47;;;4.10;;
17967;SDS011;9109;48.050;11.696;2022-11-15T16:44:31;6.30;;;3.20;;
17967;SDS011;9109;48.050;11.696;2022-11-15T16:47:36;20.87;;;3.87;;
17967;SDS011;9109;48.050;11.696;2022-11-15T16:50:40;12.90;;;4.23;;
17967;SDS011;9109;48.050;11.696;2022-11-15T16:53:50;11.20;;;4.50;;
17967;SDS011;9109;48.050;11.696;2022-11-15T16:56:53;14.93;;;4.80;;
17967;SDS011;9109;48.050;11.696;2022-11-15T17:00:08;9.73;;;4.07;;
17967;SDS011;9109;48.050;11.696;2022-11-15T17:03:12;18.03;;;5.03;;
17967;SDS011;9109;48.050;11.696;2022-11-15T17:06:17;13.43;;;4.13;;
17967;SDS011;9109;48.050;11.696;2022-11-15T17:09:22;21.87;;;4.43;;
17967;SDS011;9109;48.050;11.696;2022-11-15T17:12:26;14.33;;;4.60;;
17967;SDS011;9109;48.050;11.696;2022-11-15T17:15:30;15.63;;;5.67;;
17967;SDS011;9109;48.050;11.696;2022-11-15T17:18:32;16.20;;;5.80;;
17967;SDS011;9109;48.050;11.696;2022-11-15T17:21:34;16.67;;;6.53;;
17967;SDS011;9109;48.050;11.696;2022-11-15T17:24:45;14.10;;;6.60;;
17967;SDS011;9109;48.050;11.696;2022-11-15T17:27:53;21.37;;;7.17;;
17967;SDS011;9109;48.050;11.696;2022-11-15T17:31:04;20.97;;;7.37;;
17967;SDS011;9109;48.050;11.696;2022-11-15T17:34:14;27.80;;;7.93;;
17967;SDS011;9109;48.050;11.696;2022-11-15T17:37:23;20.57;;;7.03;;
17967;SDS011;9109;48.050;11.696;2022-11-15T17:52:42;24.73;;;7.07;;
17967;SDS011;9109;48.050;11.696;2022-11-15T17:55:47;15.77;;;6.40;;
17967;SDS011;9109;48.050;11.696;2022-11-15T17:58:57;17.50;;;5.97;;
17967;SDS011;9109;48.050;11.696;2022-11-15T18:02:21;11.63;;;4.57;;
17967;SDS011;9109;48.050;11.696;2022-11-15T18:05:29;15.17;;;4.80;;
17967;SDS011;9109;48.050;11.696;2022-11-15T18:09:23;16.97;;;6.13;;
17967;SDS011;9109;48.050;11.696;2022-11-15T18:12:19;13.37;;;6.50;;
17967;SDS011;9109;48.050;11.696;2022-11-15T18:15:41;8.77;;;4.47;;
17967;SDS011;9109;48.050;11.696;2022-11-15T18:19:33;17.73;;;4.63;;
17967;SDS011;9109;48.050;11.696;2022-11-15T18:23:02;10.47;;;5.13;;
17967;SDS011;9109;48.050;11.696;2022-11-15T18:26:16;12.70;;;5.40;;
17967;SDS011;9109;48.050;11.696;2022-11-15T18:41:44;24.23;;;8.80;;
17967;SDS011;9109;48.050;11.696;2022-11-15T18:44:46;35.43;;;10.07;;
17967;SDS011;9109;48.050;11.696;2022-11-15T18:47:48;23.47;;;9.60;;
17967;SDS011;9109;48.050;11.696;2022-11-15T18:50:50;16.47;;;6.77;;
17967;SDS011;9109;48.050;11.696;2022-11-15T18:53:54;14.33;;;6.20;;
17967;SDS011;9109;48.050;11.696;2022-11-15T18:56:57;22.10;;;8.50;;
17967;SDS011;9109;48.050;11.696;2022-11-15T18:59:59;26.60;;;7.90;;
17967;SDS011;9109;48.050;11.696;2022-11-15T19:03:01;18.40;;;8.10;;
17967;SDS011;9109;48.050;11.696;2022-11-15T19:06:03;22.57;;;7.60;;
17967;SDS011;9109;48.050;11.696;2022-11-15T19:09:09;12.37;;;6.33;;
17967;SDS011;9109;48.050;11.696;2022-11-15T19:12:13;15.80;;;6.97;;
17967;SDS011;9109;48.050;11.696;2022-11-15T19:15:14;15.33;;;7.33;;
17967;SDS011;9109;48.050;11.696;2022-11-15T19:18:16;14.33;;;7.00;;
17967;SDS011;9109;48.050;11.696;2022-11-15T19:21:18;10.90;;;5.97;;
17967;SDS011;9109;48.050;11.696;2022-11-15T19:24:22;11.97;;;5.60;;
17967;SDS011;9109;48.050;11.696;2022-11-15T19:27:26;15.97;;;6.53;;
17967;SDS011;9109;48.050;11.696;2022-11-15T19:30:28;13.87;;;7.07;;
17967;SDS011;9109;48.050;11.696;2022-11-15T19:33:29;15.57;;;7.03;;
17967;SDS011;9109;48.050;11.696;2022-11-15T19:36:33;16.87;;;7.20;;
17967;SDS011;9109;48.050;11.696;2022-11-15T19:39:37;15.33;;;7.87;;
17967;SDS011;9109;48.050;11.696;2022-11-15T19:42:39;18.73;;;7.50;;
17967;SDS011;9109;48.050;11.696;2022-11-15T19:45:41;16.30;;;7.47;;
17967;SDS011;9109;48.050;11.696;2022-11-15T19:48:43;15.60;;;7.93;;
17967;SDS011;9109;48.050;11.696;2022-11-15T19:51:45;13.07;;;6.90;;
17967;SDS011;9109;48.050;11.696;2022-11-15T19:54:48;13.60;;;6.97;;
17967;SDS011;9109;48.050;11.696;2022-11-15T19:57:50;20.87;;;6.83;;
17967;SDS011;9109;48.050;11.696;2022-11-15T20:00:57;14.87;;;7.00;;
17967;SDS011;9109;48.050;11.696;2022-11-15T20:04:00;13.07;;;6.60;;
17967;SDS011;9109;48.050;11.696;2022-11-15T20:07:02;13.93;;;6.67;;
17967;SDS011;9109;48.050;11.696;2022-11-15T20:10:06;11.90;;;6.37;;
17967;SDS011;9109;48.050;11.696;2022-11-15T20:13:09;13.97;;;6.67;;
17967;SDS011;9109;48.050;11.696;2022-11-15T20:16:13;16.97;;;6.33;;
17967;SDS011;9109;48.050;11.696;2022-11-15T20:19:16;14.10;;;6.40;;
17967;SDS011;9109;48.050;11.696;2022-11-15T20:22:18;12.40;;;6.20;;
17967;SDS011;9109;48.050;11.696;2022-11-15T20:25:22;12.63;;;6.47;;
17967;SDS011;9109;48.050;11.696;2022-11-15T20:28:24;15.00;;;7.67;;
17967;SDS011;9109;48.050;11.696;2022-11-15T20:31:34;25.57;;;10.83;;
17967;SDS011;9109;48.050;11.696;2022-11-15T20:34:36;30.17;;;11.37;;
17967;SDS011;9109;48.050;11.696;2022-11-15T20:37:38;26.30;;;10.17;;
17967;SDS011;9109;48.050;11.696;2022-11-15T20:40:43;22.67;;;10.03;;
17967;SDS011;9109;48.050;11.696;2022-11-15T20:43:45;18.40;;;8.80;;
17967;SDS011;9109;48.050;11.696;2022-11-15T20:46:47;16.97;;;7.63;;
17967;SDS011;9109;48.050;11.696;2022-11-15T20:49:49;17.37;;;7.27;;
17967;SDS011;9109;48.050;11.696;2022-11-15T20:52:51;17.67;;;7.07;;
17967;SDS011;9109;48.050;11.696;2022-11-15T20:56:01;14.17;;;6.70;;
17967;SDS011;9109;48.050;11.696;2022-11-15T20:59:16;13.67;;;6.83;;
17967;SDS011;9109;48.050;11.696;2022-11-15T21:02:20;14.40;;;6.53;;
17967;SDS011;9109;48.050;11.696;2022-11-15T21:05:26;15.17;;;6.03;;
17967;SDS011;9109;48.050;11.696;2022-11-15T21:08:30;11.40;;;5.80;;
17967;SDS011;9109;48.050;11.696;2022-11-15T21:12:01;15.77;;;6.87;;
17967;SDS011;9109;48.050;11.696;2022-11-15T21:15:12;15.63;;;7.27;;
17967;SDS011;9109;48.050;11.696;2022-11-15T21:18:20;11.13;;;6.20;;
17967;SDS011;9109;48.050;11.696;2022-11-15T21:21:27;11.13;;;5.93;;
17967;SDS011;9109;48.050;11.696;2022-11-15T21:24:39;12.93;;;7.03;;
17967;SDS011;9109;48.050;11.696;2022-11-15T21:27:43;13.97;;;5.97;;
17967;SDS011;9109;48.050;11.696;2022-11-15T21:30:51;15.43;;;6.93;;
17967;SDS011;9109;48.050;11.696;2022-11-15T21:34:05;12.70;;;6.23;;
17967;SDS011;9109;48.050;11.696;2022-11-15T21:37:27;12.53;;;6.30;;
17967;SDS011;9109;48.050;11.696;2022-11-15T21:41:16;16.37;;;7.97;;
17967;SDS011;9109;48.050;11.696;2022-11-15T21:44:37;16.53;;;7.70;;
17967;SDS011;9109;48.050;11.696;2022-11-15T21:47:44;15.40;;;7.43;;
17967;SDS011;9109;48.050;11.696;2022-11-15T21:50:54;16.93;;;7.60;;
17967;SDS011;9109;48.050;11.696;2022-11-15T21:53:56;13.10;;;6.53;;
17967;SDS011;9109;48.050;11.696;2022-11-15T21:56:59;12.50;;;6.13;;
17967;SDS011;9109;48.050;11.696;2022-11-15T22:00:07;12.07;;;6.83;;
17967;SDS011;9109;48.050;11.696;2022-11-15T22:03:29;14.00;;;7.00;;
17967;SDS011;9109;48.050;11.696;2022-11-15T22:06:31;14.13;;;6.27;;
17967;SDS011;9109;48.050;11.696;2022-11-15T22:09:33;15.27;;;5.90;;
17967;SDS011;9109;48.050;11.696;2022-11-15T22:12:35;13.47;;;5.87;;
17967;SDS011;9109;48.050;11.696;2022-11-15T22:15:38;11.20;;;5.73;;
17967;SDS011;9109;48.050;11.696;2022-11-15T22:18:40;12.80;;;5.93;;
17967;SDS011;9109;48.050;11.696;2022-11-15T22:21:42;10.60;;;5.23;;
17967;SDS011;9109;48.050;11.696;2022-11-15T22:24:44;10.60;;;5.27;;
17967;SDS011;9109;48.050;11.696;2022-11-15T22:27:46;11.20;;;5.30;;
17967;SDS011;9109;48.050;11.696;2022-11-15T22:30:51;10.23;;;5.50;;
17967;SDS011;9109;48.050;11.696;2022-11-15T22:33:54;13.17;;;6.00;;
17967;SDS011;9109;48.050;11.696;2022-11-15T22:36:56;12.90;;;5.83;;
17967;SDS011;9109;48.050;11.696;2022-11-15T22:39:58;10.83;;;5.50;;
17967;SDS011;9109;48.050;11.696;2022-11-15T22:43:00;10.77;;;5.50;;
17967;SDS011;9109;48.050;11.696;2022-11-15T22:46:04;12.57;;;5.80;;
17967;SDS011;9109;48.050;11.696;2022-11-15T22:49:06;9.90;;;5.70;;
17967;SDS011;9109;48.050;11.696;2022-11-15T22:52:09;16.53;;;5.67;;
17967;SDS011;9109;48.050;11.696;2022-11-15T22:55:12;8.27;;;4.80;;
17967;SDS011;9109;48.050;11.696;2022-11-15T22:58:14;9.77;;;5.70;;
17967;SDS011;9109;48.050;11.696;2022-11-15T23:01:19;10.17;;;5.30;;
17967;SDS011;9109;48.050;11.696;2022-11-15T23:04:22;12.50;;;5.13;;
17967;SDS011;9109;48.050;11.696;2022-11-15T23:07:24;9.57;;;5.73;;
17967;SDS011;9109;48.050;11.696;2022-11-15T23:10:26;16.43;;;5.50;;
17967;SDS011;9109;48.050;11.696;2022-11-15T23:13:47;11.93;;;5.50;;
17967;SDS011;9109;48.050;11.696;2022-11-15T23:16:52;17.23;;;6.07;;
17967;SDS011;9109;48.050;11.696;2022-11-15T23:19:54;13.30;;;5.87;;
17967;SDS011;9109;48.050;11.696;2022-11-15T23:22:56;11.93;;;6.23;;
17967;SDS011;9109;48.050;11.696;2022-11-15T23:25:58;13.27;;;6.10;;
17967;SDS011;9109;48.050;11.696;2022-11-15T23:29:01;14.20;;;5.77;;
17967;SDS011;9109;48.050;11.696;2022-11-15T23:32:05;12.17;;;5.50;;
17967;SDS011;9109;48.050;11.696;2022-11-15T23:35:36;9.33;;;4.90;;
17967;SDS011;9109;48.050;11.696;2022-11-15T23:38:38;10.03;;;5.03;;
17967;SDS011;9109;48.050;11.696;2022-11-15T23:41:40;10.77;;;4.77;;
17967;SDS011;9109;48.050;11.696;2022-11-15T23:44:43;13.77;;;5.83;;
17967;SDS011;9109;48.050;11.696;2022-11-15T23:47:46;13.17;;;5.63;;
17967;SDS011;9109;48.050;11.696;2022-11-15T23:50:48;12.87;;;5.10;;
17967;SDS011;9109;48.050;11.696;2022-11-15T23:53:50;12.20;;;5.50;;
17967;SDS011;9109;48.050;11.696;2022-11-15T23:56:52;12.33;;;5.40;;
17967;SDS011;9109;48.050;11.696;2022-11-15T23:59:54;11.53;;;6.03;;